Kortcamp, Illinois
Current Conditions -  °F | °C
As of 4:15 AM on Sunday 25 Jan 2015 (Local Time) from K3LF Reporting Station
Light Rain Light Rain  
Wind Chill:   Ceiling: 3600
Heat Index:   Visibility: 7mi
Dew Point:   Wind: 7mph
Humidity: 81%   Direction: 230°SW
Pressure: 29.61"   Gusts: NA
Location:  39.1415°N, 89.5029°W
Report Text: K3LF 251015Z AUTO 23006KT 7SM -RA SCT027 BKN036 OVC050 03/00 A2961 RMK AO2 T00330004
Loading
Personal Weather Stations






























Interactive Weather Map New forecast layout! Learn more

10-Day Weather Forecast

Advertisements
Track Severe Weather on mobile